Terminal Aerodrome Forecast
Issued by NWS Bismarck, ND

Home | Current Version | Previous Version | Text Only | Print | Product List | Glossary Off
Versions: 1 2 3 4 5 6 7 8 9 10 11 12 13 14 15 16 17 18 19 20 21 22 23

000
FTUS43 KBIS 281400 AAA
TAFBIS
TAF AMD
KBIS 281430Z 2815/2912 03015G20KT P6SM SCT015 OVC025
     FM281700 04015G21KT P6SM VCSH SCT015 BKN025 OVC040
     FM290400 05011KT 3SM BR VCSH OVC010=

USA.gov is the U.S. government's official web portal to all federal, state and local government web resources and services.